TimeEDT,TemperatureF,Dew PointF,Humidity,Sea Level PressureIn,VisibilityMPH,Wind Direction,Wind SpeedMPH,Gust SpeedMPH,PrecipitationIn,Events,Conditions,WindDirDegrees,DateUTC
12:51 AM,75.9,66.9,74,29.86,10.0,SW,13.8,-,N/A,,Mostly Cloudy,220,2013-08-31 04:51:00
1:51 AM,75.0,68.0,79,29.86,10.0,SW,9.2,-,N/A,,Mostly Cloudy,230,2013-08-31 05:51:00
2:51 AM,75.0,68.0,79,29.85,10.0,SW,11.5,-,N/A,,Mostly Cloudy,220,2013-08-31 06:51:00
3:51 AM,73.9,66.9,79,29.86,10.0,SW,10.4,-,N/A,,Mostly Cloudy,220,2013-08-31 07:51:00
4:51 AM,73.0,66.9,81,29.85,10.0,SW,12.7,-,N/A,,Mostly Cloudy,230,2013-08-31 08:51:00
5:26 AM,73.4,66.2,78,29.86,10.0,WSW,12.7,-,N/A,,Overcast,240,2013-08-31 09:26:00
5:51 AM,73.0,66.9,81,29.86,10.0,SW,13.8,19.6,N/A,,Mostly Cloudy,230,2013-08-31 09:51:00
6:33 AM,73.4,66.2,78,29.86,10.0,SW,8.1,18.4,N/A,,Mostly Cloudy,220,2013-08-31 10:33:00
6:51 AM,73.9,66.9,79,29.85,9.0,SSW,9.2,-,N/A,,Mostly Cloudy,200,2013-08-31 10:51:00
7:51 AM,73.9,68.0,82,29.85,9.0,SW,10.4,-,N/A,,Overcast,230,2013-08-31 11:51:00
8:51 AM,75.9,68.0,76,29.86,9.0,SW,9.2,-,N/A,,Overcast,230,2013-08-31 12:51:00
9:03 AM,75.2,68.0,78,29.86,9.0,SW,11.5,-,N/A,,Overcast,220,2013-08-31 13:03:00
9:51 AM,75.9,68.0,76,29.86,9.0,SSW,10.4,-,N/A,,Overcast,210,2013-08-31 13:51:00
10:51 AM,78.1,68.0,71,29.86,9.0,Variable,6.9,-,N/A,,Overcast,0,2013-08-31 14:51:00
11:51 AM,79.0,68.0,69,29.85,8.0,SW,6.9,-,N/A,,Overcast,230,2013-08-31 15:51:00
12:24 PM,82.4,69.8,66,29.84,9.0,SW,8.1,-,N/A,,Mostly Cloudy,230,2013-08-31 16:24:00
12:51 PM,82.0,68.0,62,29.84,9.0,SSW,9.2,-,N/A,,Mostly Cloudy,210,2013-08-31 16:51:00
1:51 PM,84.0,69.1,61,29.83,10.0,SW,10.4,-,N/A,,Mostly Cloudy,220,2013-08-31 17:51:00
2:51 PM,84.0,69.1,61,29.82,10.0,Variable,6.9,-,N/A,,Mostly Cloudy,0,2013-08-31 18:51:00
3:51 PM,84.0,70.0,63,29.81,10.0,SSE,15.0,-,N/A,,Mostly Cloudy,160,2013-08-31 19:51:00
4:51 PM,84.0,70.0,63,29.79,10.0,SSE,8.1,-,N/A,,Mostly Cloudy,160,2013-08-31 20:51:00
5:51 PM,84.0,70.0,63,29.80,10.0,South,9.2,-,N/A,,Mostly Cloudy,170,2013-08-31 21:51:00
6:51 PM,84.0,70.0,63,29.79,10.0,South,9.2,-,N/A,,Mostly Cloudy,170,2013-08-31 22:51:00
7:51 PM,84.9,69.1,59,29.81,10.0,SW,11.5,-,N/A,,Mostly Cloudy,230,2013-08-31 23:51:00
8:51 PM,81.0,70.0,69,29.81,10.0,South,12.7,-,N/A,,Mostly Cloudy,180,2013-09-01 00:51:00
9:51 PM,80.1,70.0,71,29.83,10.0,South,9.2,-,N/A,,Mostly Cloudy,190,2013-09-01 01:51:00
10:51 PM,80.1,70.0,71,29.83,10.0,SSW,13.8,-,N/A,,Mostly Cloudy,210,2013-09-01 02:51:00
11:51 PM,80.1,70.0,71,29.83,10.0,SW,11.5,-,N/A,,Mostly Cloudy,220,2013-09-01 03:51:00